Hlavní strana
METAR-TAF:

METAR-TAF

Letiště :

Athens, Georgie, Spojené státy americké

zeměpisná šířka: 33-57-03N, zeměpisná délka: 083-19-41W, výška: 246 m

Aktuální stav počasí

Zpráva byla vytvořena před 42 minutami, v 10:51 UTC
Bezvětří
Teplota 21°C
Vlhkost vzduchu 83%
Tlak 1022 hPa
Viditelnost: 16.1 km
Jasno

METAR: KAHN 241051Z AUTO 00000KT 10SM CLR 21/18 A3018 RMK AO2 SLP211 T02110183

Čas: 07:33 (11:33 UTC)

Předpověď počasí

Zpráva byla vytvořena před 6 hodinami a 3 minutami, v 05:30 UTC
Předpověď platná od 24 v 06 UTC do 25 v 06 UTC
vítr z různých směrů 3 kt
Viditelnost: 10 km
Skoro jasno ve výšce 7000 ft
Od 24 v 1500 UTC
Západní vítr 5 kt
Viditelnost: 10 km
Skoro jasno ve výšce 4500 ft
Od 25 v 0100 UTC
Severní vítr kt
Viditelnost: 10 km
Skoro jasno ve výšce 6000 ft
Polojasno ve výšce 25000 ft

TAF: KAHN 240530Z 2406/2506 VRB03KT P6SM FEW070 FM241500 26005KT P6SM FEW045 FM250100 00000KT P6SM FEW060 SCT250

Stav a předpovědi počasí z více než 4 000 letišť (zprávy METAR a TAF).

Červené a žluté tečky na mapě představují dostupné meteorologické stanice.

Když kurzor umístíte na tečku, zobrazí se název stanice.

Pak kliknutím zobrazíte stav a předpověď počasí.

Chcete-li změnit mapu, kliknutím na zelené tlačítko se znaménkem +mapu přiblížíte, kliknutím na zelené tlačítko se znaménkem – mapu oddálíte a kliknutím na zelené šipky přejdete na sousední mapy.


METAR-TAF: